createdAt,value
2018-05-24T00:02:20.853Z,2.00
2018-05-24T00:04:50.064Z,2.30
2018-05-24T00:07:18.508Z,2.10
2018-05-24T00:09:46.963Z,2.17
2018-05-24T00:12:15.436Z,2.23
2018-05-24T00:14:43.885Z,2.20
2018-05-24T00:17:12.350Z,2.10
2018-05-24T00:19:40.787Z,2.13
2018-05-24T00:22:09.215Z,2.30
2018-05-24T00:24:38.423Z,2.30
2018-05-24T00:27:06.864Z,1.80
2018-05-24T00:29:36.078Z,2.30
2018-05-24T00:32:04.201Z,1.73
2018-05-24T00:34:32.699Z,2.03
2018-05-24T00:37:01.184Z,2.30
2018-05-24T00:39:29.628Z,1.90
2018-05-24T00:41:58.891Z,2.30
2018-05-24T00:44:27.340Z,2.40
2018-05-24T00:46:55.799Z,2.20
2018-05-24T00:49:24.244Z,2.43
2018-05-24T00:51:52.782Z,1.93
2018-05-24T00:54:21.384Z,2.10
2018-05-24T00:56:49.833Z,2.40
2018-05-24T00:59:18.283Z,2.17
2018-05-24T01:01:46.767Z,2.10
2018-05-24T01:04:15.207Z,2.20
2018-05-24T01:06:43.652Z,2.20
2018-05-24T01:09:11.765Z,2.40
2018-05-24T01:11:40.221Z,2.57
2018-05-24T01:14:08.668Z,1.70
2018-05-24T01:16:37.299Z,1.90
2018-05-24T01:19:05.749Z,2.20
2018-05-24T01:21:34.185Z,2.20
2018-05-24T01:24:02.634Z,2.50
2018-05-24T01:26:32.027Z,2.30
2018-05-24T01:29:00.480Z,2.10
2018-05-24T01:31:28.948Z,2.63
2018-05-24T01:33:57.385Z,2.17
2018-05-24T01:36:36.931Z,2.50
2018-05-24T01:39:04.716Z,2.10
2018-05-24T01:41:33.166Z,2.47
2018-05-24T01:44:02.424Z,2.27
2018-05-24T01:46:30.868Z,2.50
2018-05-24T01:48:59.307Z,2.33
2018-05-24T01:51:27.763Z,2.13
2018-05-24T01:53:56.205Z,2.80
2018-05-24T01:56:24.649Z,2.27
2018-05-24T01:58:53.092Z,2.50
2018-05-24T02:01:21.532Z,2.33
2018-05-24T02:03:49.971Z,2.50
2018-05-24T02:06:18.411Z,2.33
2018-05-24T02:08:46.887Z,2.40
2018-05-24T02:11:15.491Z,2.40
2018-05-24T02:13:43.935Z,2.43
2018-05-24T02:16:12.377Z,2.23
2018-05-24T02:18:40.822Z,2.50
2018-05-24T02:21:09.259Z,2.20
2018-05-24T02:23:37.724Z,2.50
2018-05-24T02:26:06.167Z,2.70
2018-05-24T02:28:34.611Z,2.20
2018-05-24T02:31:03.812Z,2.60
2018-05-24T02:33:32.249Z,2.73
2018-05-24T02:36:00.870Z,2.70
2018-05-24T02:38:29.348Z,2.43
2018-05-24T02:40:57.788Z,3.13
2018-05-24T02:43:26.251Z,2.83
2018-05-24T02:45:54.688Z,2.83
2018-05-24T02:48:23.147Z,2.40
2018-05-24T02:50:51.600Z,2.90
2018-05-24T02:53:20.063Z,2.50
2018-05-24T02:55:49.274Z,2.67
2018-05-24T02:58:17.742Z,2.70
2018-05-24T03:00:46.197Z,2.80
2018-05-24T03:03:14.671Z,2.60
2018-05-24T03:05:43.116Z,2.83
2018-05-24T03:08:11.600Z,2.40
2018-05-24T03:10:40.035Z,2.70
2018-05-24T03:13:08.480Z,2.47
2018-05-24T03:15:36.927Z,3.20
2018-05-24T03:18:05.376Z,2.50
2018-05-24T03:20:33.819Z,2.50
2018-05-24T03:23:02.260Z,2.77
2018-05-24T03:25:30.699Z,2.60
2018-05-24T03:27:59.146Z,2.70
2018-05-24T03:30:27.601Z,2.50
2018-05-24T03:32:56.048Z,2.40
2018-05-24T03:35:24.807Z,3.13
2018-05-24T03:37:53.246Z,2.80
2018-05-24T03:40:22.464Z,2.70
2018-05-24T03:42:50.911Z,2.77
2018-05-24T03:45:19.391Z,2.40
2018-05-24T03:47:47.828Z,2.63
2018-05-24T03:50:16.270Z,3.03
2018-05-24T03:52:44.716Z,3.00
2018-05-24T03:55:13.168Z,2.70
2018-05-24T03:57:41.715Z,3.07
2018-05-24T04:00:21.354Z,2.90
2018-05-24T04:03:00.894Z,2.30
2018-05-24T04:05:29.858Z,2.43
2018-05-24T04:07:58.293Z,2.57
2018-05-24T04:10:26.738Z,2.60
2018-05-24T04:12:55.179Z,2.60
2018-05-24T04:15:23.621Z,2.80
2018-05-24T04:17:52.071Z,3.47
2018-05-24T04:20:20.512Z,2.70
2018-05-24T04:22:48.953Z,3.07
2018-05-24T04:25:17.390Z,2.63
2018-05-24T04:27:45.829Z,2.80
2018-05-24T04:30:15.044Z,2.57
2018-05-24T04:32:43.503Z,2.83
2018-05-24T04:35:11.972Z,2.47
2018-05-24T04:37:40.417Z,3.00
2018-05-24T04:40:08.880Z,2.87
2018-05-24T04:42:37.319Z,3.23
2018-05-24T04:45:05.959Z,2.87
2018-05-24T04:47:34.400Z,3.00
2018-05-24T04:50:02.847Z,3.00
2018-05-24T04:52:31.288Z,3.10
2018-05-24T04:54:59.732Z,3.10
2018-05-24T04:57:28.183Z,3.33
2018-05-24T04:59:56.628Z,3.10
2018-05-24T05:02:25.096Z,2.93
2018-05-24T05:04:54.315Z,2.97
2018-05-24T05:07:22.765Z,3.00
2018-05-24T05:09:51.240Z,2.80
2018-05-24T05:12:20.445Z,2.97
2018-05-24T05:14:48.896Z,3.30
2018-05-24T05:17:18.085Z,3.00
2018-05-24T05:19:46.522Z,3.13
2018-05-24T05:22:15.782Z,3.10
2018-05-24T05:24:44.222Z,3.50
2018-05-24T05:27:12.444Z,3.20
2018-05-24T05:29:40.903Z,3.30
2018-05-24T05:32:09.343Z,3.30
2018-05-24T05:34:37.899Z,3.43
2018-05-24T05:37:06.342Z,3.30
2018-05-24T05:39:35.707Z,3.47
2018-05-24T05:42:04.356Z,3.30
2018-05-24T05:44:32.808Z,3.30
2018-05-24T05:47:01.255Z,3.17
2018-05-24T05:49:29.700Z,4.23
2018-05-24T05:51:58.248Z,3.87
2018-05-24T05:54:26.803Z,3.77
2018-05-24T05:56:56.019Z,3.53
2018-05-24T05:59:24.472Z,3.63
2018-05-24T06:01:52.968Z,3.27
2018-05-24T06:04:21.592Z,3.73
2018-05-24T06:06:50.091Z,3.60
2018-05-24T06:09:18.540Z,3.73
2018-05-24T06:11:46.987Z,3.70
2018-05-24T06:14:15.504Z,3.73
2018-05-24T06:16:43.952Z,3.20
2018-05-24T06:19:12.399Z,3.70
2018-05-24T06:21:40.886Z,3.70
2018-05-24T06:24:09.507Z,3.60
2018-05-24T06:26:37.964Z,4.80
2018-05-24T06:29:06.408Z,3.60
2018-05-24T06:31:34.855Z,3.87
2018-05-24T06:34:03.291Z,3.40
2018-05-24T06:36:31.731Z,3.70
2018-05-24T06:39:00.181Z,3.67
2018-05-24T06:41:28.632Z,3.77
2018-05-24T06:43:57.093Z,3.97
2018-05-24T06:46:25.618Z,4.20
2018-05-24T06:48:54.787Z,3.50
2018-05-24T06:51:23.243Z,3.70
2018-05-24T06:53:51.781Z,3.83
2018-05-24T06:56:20.338Z,3.27
2018-05-24T06:58:48.783Z,3.50
2018-05-24T07:01:17.231Z,3.43
2018-05-24T07:03:46.083Z,3.70
2018-05-24T07:06:14.548Z,3.83
2018-05-24T07:08:42.995Z,3.53
2018-05-24T07:11:11.521Z,3.37
2018-05-24T07:13:40.092Z,3.70
2018-05-24T07:16:08.532Z,3.27
2018-05-24T07:18:37.082Z,3.80
2018-05-24T07:21:05.715Z,3.90
2018-05-24T07:23:34.340Z,3.93
2018-05-24T07:26:03.327Z,4.07
2018-05-24T07:28:31.783Z,4.27
2018-05-24T07:31:00.248Z,3.87
2018-05-24T07:33:28.695Z,4.10
2018-05-24T07:35:57.175Z,4.30
2018-05-24T07:38:25.613Z,4.20
2018-05-24T07:40:54.844Z,5.17
2018-05-24T07:43:22.954Z,3.93
2018-05-24T07:45:51.419Z,4.30
2018-05-24T07:48:19.871Z,4.83
2018-05-24T07:50:49.298Z,4.43
2018-05-24T07:53:17.739Z,4.37
2018-05-24T07:55:46.205Z,4.17
2018-05-24T07:58:14.664Z,5.57
2018-05-24T08:00:43.155Z,4.67
2018-05-24T08:03:12.381Z,5.30
2018-05-24T08:05:40.836Z,5.20
2018-05-24T08:08:09.965Z,5.17
2018-05-24T08:10:39.192Z,5.10
2018-05-24T08:13:08.437Z,5.93
2018-05-24T08:15:36.901Z,5.07
2018-05-24T08:18:05.340Z,5.10
2018-05-24T08:20:33.836Z,4.73
2018-05-24T08:23:02.284Z,5.53
2018-05-24T08:25:30.779Z,5.40
2018-05-24T08:27:59.218Z,5.33
2018-05-24T08:30:29.499Z,5.30
2018-05-24T08:32:58.776Z,5.17
2018-05-24T08:35:30.050Z,5.50
2018-05-24T08:37:58.495Z,5.90
2018-05-24T08:40:26.944Z,5.60
2018-05-24T08:42:56.323Z,5.13
2018-05-24T08:45:24.780Z,6.00
2018-05-24T08:47:53.228Z,6.10
2018-05-24T08:50:21.667Z,5.40
2018-05-24T08:52:50.116Z,6.60
2018-05-24T08:55:18.572Z,7.00
2018-05-24T08:57:47.033Z,5.77
2018-05-24T09:00:15.475Z,6.07
2018-05-24T09:02:43.960Z,5.80
2018-05-24T09:05:12.406Z,5.77
2018-05-24T09:07:41.685Z,6.07
2018-05-24T09:10:10.132Z,6.73
2018-05-24T09:12:38.601Z,5.93
2018-05-24T09:15:07.056Z,5.60
2018-05-24T09:17:35.531Z,6.47
2018-05-24T09:20:03.663Z,6.20
2018-05-24T09:22:32.314Z,6.33
2018-05-24T09:25:00.960Z,7.00
2018-05-24T09:27:29.403Z,6.10
2018-05-24T09:29:57.847Z,7.00
2018-05-24T09:32:26.287Z,5.87
2018-05-24T09:34:54.833Z,6.60
2018-05-24T09:37:24.043Z,6.90
2018-05-24T09:39:53.254Z,6.27
2018-05-24T09:42:21.717Z,6.47
2018-05-24T09:44:50.160Z,6.50
2018-05-24T09:47:19.388Z,6.23
2018-05-24T09:49:47.831Z,6.87
2018-05-24T09:52:16.565Z,5.87
2018-05-24T09:54:45.780Z,6.23
2018-05-24T09:57:14.245Z,5.43
2018-05-24T09:59:43.342Z,5.30
2018-05-24T10:02:11.822Z,6.10
2018-05-24T10:04:44.122Z,5.70
2018-05-24T10:07:12.686Z,5.40
2018-05-24T10:09:41.136Z,5.23
2018-05-24T10:12:09.583Z,6.30
2018-05-24T10:14:38.329Z,5.67
2018-05-24T10:17:06.436Z,6.00
2018-05-24T10:19:34.886Z,6.30
2018-05-24T10:22:04.102Z,7.70
2018-05-24T10:24:32.556Z,7.77
2018-05-24T10:27:01.008Z,8.20
2018-05-24T10:29:29.559Z,8.07
2018-05-24T10:31:58.115Z,8.20
2018-05-24T10:34:26.569Z,7.30
2018-05-24T10:36:55.017Z,7.27
2018-05-24T10:39:23.661Z,8.03
2018-05-24T10:41:52.145Z,9.03
2018-05-24T10:44:20.596Z,7.97
2018-05-24T10:46:52.756Z,7.83
2018-05-24T10:49:21.224Z,7.73
2018-05-24T10:51:49.684Z,9.90
2018-05-24T10:54:18.161Z,8.43
2018-05-24T10:56:46.851Z,8.73
2018-05-24T10:59:15.442Z,8.57
2018-05-24T11:01:43.904Z,7.37
2018-05-24T11:04:12.356Z,8.50
2018-05-24T11:06:40.464Z,8.23
2018-05-24T11:09:12.340Z,8.57
2018-05-24T11:11:40.817Z,8.33
2018-05-24T11:14:09.423Z,8.00
2018-05-24T11:16:37.875Z,8.33
2018-05-24T11:19:07.095Z,8.97
2018-05-24T11:21:35.545Z,8.70
2018-05-24T11:24:03.995Z,8.03
2018-05-24T11:26:32.450Z,8.67
2018-05-24T11:29:01.665Z,8.60
2018-05-24T11:31:30.108Z,8.50
2018-05-24T11:33:58.564Z,7.60
2018-05-24T11:36:27.774Z,7.50
2018-05-24T11:38:56.210Z,7.47
2018-05-24T11:41:26.992Z,7.87
2018-05-24T11:43:56.556Z,7.10
2018-05-24T11:46:25.000Z,6.70
2018-05-24T11:48:53.444Z,8.37
2018-05-24T11:51:21.888Z,7.90
2018-05-24T11:53:50.580Z,7.77
2018-05-24T11:56:19.036Z,7.83
2018-05-24T11:58:47.492Z,8.17
2018-05-24T12:01:16.709Z,8.60
2018-05-24T12:03:45.148Z,7.53
2018-05-24T12:06:13.621Z,7.60
2018-05-24T12:08:42.072Z,7.67
2018-05-24T12:11:10.515Z,7.97
2018-05-24T12:13:39.754Z,7.47
2018-05-24T12:16:08.200Z,7.70
2018-05-24T12:18:36.678Z,7.80
2018-05-24T12:21:04.915Z,7.67
2018-05-24T12:23:33.379Z,8.10
2018-05-24T12:26:01.824Z,8.43
2018-05-24T12:28:31.060Z,8.00
2018-05-24T12:31:00.005Z,8.13
2018-05-24T12:33:28.489Z,9.00
2018-05-24T12:35:56.930Z,8.53
2018-05-24T12:38:26.151Z,8.57
2018-05-24T12:40:54.599Z,9.03
2018-05-24T12:43:23.048Z,9.40
2018-05-24T12:45:51.514Z,9.30
2018-05-24T12:48:19.967Z,8.40
2018-05-24T12:50:48.425Z,8.57
2018-05-24T12:53:17.124Z,9.33
2018-05-24T12:55:45.563Z,9.03
2018-05-24T12:58:14.005Z,9.20
2018-05-24T13:00:42.454Z,9.27
2018-05-24T13:03:10.917Z,10.47
2018-05-24T13:05:39.364Z,9.70
2018-05-24T13:08:07.825Z,9.57
2018-05-24T13:10:36.285Z,9.70
2018-05-24T13:13:04.734Z,9.77
2018-05-24T13:15:33.189Z,9.03
2018-05-24T13:18:01.637Z,9.20
2018-05-24T13:20:30.582Z,9.40
2018-05-24T13:22:59.031Z,9.60
2018-05-24T13:25:27.492Z,9.07
2018-05-24T13:27:56.116Z,8.73
2018-05-24T13:30:24.570Z,9.57
2018-05-24T13:32:53.024Z,8.63
2018-05-24T13:35:21.470Z,9.20
2018-05-24T13:37:50.699Z,9.83
2018-05-24T13:40:19.153Z,8.80
2018-05-24T13:42:47.607Z,10.00
2018-05-24T13:45:16.125Z,9.87
2018-05-24T13:47:44.708Z,9.43
2018-05-24T13:50:13.171Z,10.03
2018-05-24T13:52:41.299Z,10.70
2018-05-24T13:55:11.558Z,10.27
2018-05-24T13:57:46.066Z,10.73
2018-05-24T14:00:14.551Z,10.33
2018-05-24T14:02:43.012Z,11.17
2018-05-24T14:05:11.500Z,10.50
2018-05-24T14:07:39.956Z,11.57
2018-05-24T14:10:08.428Z,11.70
2018-05-24T14:12:37.651Z,10.93
2018-05-24T14:15:06.119Z,10.90
2018-05-24T14:17:34.580Z,11.40
2018-05-24T14:20:03.060Z,12.70
2018-05-24T14:22:32.284Z,13.90
2018-05-24T14:25:00.751Z,11.53
2018-05-24T14:27:30.424Z,12.27
2018-05-24T14:29:58.895Z,11.00
2018-05-24T14:32:27.347Z,11.47
2018-05-24T14:34:55.823Z,11.27
2018-05-24T14:37:24.264Z,11.97
2018-05-24T14:39:52.747Z,11.97
2018-05-24T14:42:21.187Z,11.90
2018-05-24T14:44:49.639Z,11.97
2018-05-24T14:47:18.100Z,12.20
2018-05-24T14:49:46.559Z,12.63
2018-05-24T14:52:15.009Z,11.60
2018-05-24T14:54:43.456Z,12.13
2018-05-24T14:57:12.672Z,12.57
2018-05-24T14:59:41.124Z,12.80
2018-05-24T15:02:09.576Z,12.50
2018-05-24T15:04:38.057Z,11.73
2018-05-24T15:07:06.521Z,11.73
2018-05-24T15:09:36.413Z,12.50
2018-05-24T15:12:04.863Z,13.27
2018-05-24T15:14:33.316Z,13.80
2018-05-24T15:17:01.778Z,12.77
2018-05-24T15:19:30.241Z,13.80
2018-05-24T15:21:58.691Z,13.87
2018-05-24T15:24:28.420Z,13.23
2018-05-24T15:26:57.636Z,13.70
2018-05-24T15:29:26.088Z,13.30
2018-05-24T15:31:55.871Z,12.60
2018-05-24T15:34:24.339Z,13.83
2018-05-24T15:36:52.814Z,12.23
2018-05-24T15:39:21.288Z,12.00
2018-05-24T15:41:49.741Z,12.07
2018-05-24T15:44:18.205Z,12.13
2018-05-24T15:46:46.668Z,11.27
2018-05-24T15:49:15.121Z,10.47
2018-05-24T15:51:43.580Z,10.87
2018-05-24T15:54:12.031Z,10.20
2018-05-24T15:56:40.512Z,10.23
2018-05-24T15:59:08.953Z,10.90
2018-05-24T16:01:37.398Z,11.37
2018-05-24T16:04:06.624Z,10.97
2018-05-24T16:06:35.079Z,9.83
2018-05-24T16:09:03.384Z,10.00
2018-05-24T16:11:31.852Z,11.13
2018-05-24T16:14:00.320Z,11.07
2018-05-24T16:16:29.540Z,11.17
2018-05-24T16:18:57.996Z,10.47
2018-05-24T16:21:27.203Z,11.07
2018-05-24T16:23:56.420Z,10.07
2018-05-24T16:26:24.904Z,10.40
2018-05-24T16:28:53.351Z,10.37
2018-05-24T16:31:21.807Z,11.30
2018-05-24T16:33:50.272Z,11.27
2018-05-24T16:36:18.720Z,10.97
2018-05-24T16:38:47.168Z,10.70
2018-05-24T16:41:15.627Z,10.83
2018-05-24T16:43:44.070Z,10.93
2018-05-24T16:46:12.519Z,10.53
2018-05-24T16:48:41.215Z,11.17
2018-05-24T16:51:09.847Z,10.60
2018-05-24T16:53:38.302Z,10.50
2018-05-24T16:56:06.784Z,10.73
2018-05-24T16:58:35.258Z,11.40
2018-05-24T17:01:03.710Z,11.10
2018-05-24T17:03:32.183Z,10.87
2018-05-24T17:06:00.643Z,10.03
2018-05-24T17:08:29.101Z,11.17
2018-05-24T17:10:57.560Z,10.30
2018-05-24T17:13:26.003Z,10.87
2018-05-24T17:15:54.459Z,10.77
2018-05-24T17:18:22.908Z,11.83
2018-05-24T17:20:51.368Z,11.33
2018-05-24T17:23:19.823Z,11.10
2018-05-24T17:25:48.276Z,10.87
2018-05-24T17:28:16.780Z,10.67
2018-05-24T17:30:45.387Z,11.63
2018-05-24T17:33:13.833Z,11.57
2018-05-24T17:35:42.284Z,10.47
2018-05-24T17:38:10.744Z,11.80
2018-05-24T17:40:39.211Z,11.60
2018-05-24T17:43:07.666Z,11.73
2018-05-24T17:45:36.121Z,12.30
2018-05-24T17:48:04.567Z,11.73
2018-05-24T17:50:33.467Z,11.27
2018-05-24T17:53:01.744Z,12.17
2018-05-24T17:55:30.193Z,11.60
2018-05-24T17:57:58.651Z,11.80
2018-05-24T18:00:27.290Z,11.87
2018-05-24T18:02:55.751Z,12.43
2018-05-24T18:05:24.214Z,10.90
2018-05-24T18:07:52.669Z,11.53
2018-05-24T18:10:21.134Z,11.83
2018-05-24T18:12:49.593Z,11.43
2018-05-24T18:15:18.047Z,11.50
2018-05-24T18:17:46.497Z,11.43
2018-05-24T18:20:14.951Z,11.53
2018-05-24T18:22:43.248Z,11.73
2018-05-24T18:25:11.385Z,10.63
2018-05-24T18:27:39.834Z,11.47
2018-05-24T18:30:08.290Z,11.50
2018-05-24T18:32:36.746Z,11.17
2018-05-24T18:35:05.191Z,11.83
2018-05-24T18:37:33.677Z,10.90
2018-05-24T18:40:02.923Z,11.60
2018-05-24T18:42:31.408Z,11.37
2018-05-24T18:44:59.877Z,12.50
2018-05-24T18:47:28.363Z,12.03
2018-05-24T18:49:56.816Z,11.67
2018-05-24T18:52:25.286Z,11.57
2018-05-24T18:54:53.742Z,11.10
2018-05-24T18:57:22.226Z,10.90
2018-05-24T18:59:50.676Z,11.00
2018-05-24T19:02:19.150Z,11.07
2018-05-24T19:04:47.600Z,12.37
2018-05-24T19:07:16.045Z,11.60
2018-05-24T19:09:44.491Z,10.90
2018-05-24T19:12:12.645Z,11.23
2018-05-24T19:14:41.963Z,10.50
2018-05-24T19:17:10.080Z,11.27
2018-05-24T19:19:38.694Z,10.43
2018-05-24T19:22:06.816Z,11.37
2018-05-24T19:24:36.032Z,11.30
2018-05-24T19:27:04.493Z,11.17
2018-05-24T19:29:32.996Z,11.50
2018-05-24T19:32:01.588Z,11.47
2018-05-24T19:34:30.052Z,11.43
2018-05-24T19:36:58.507Z,11.20
2018-05-24T19:39:27.008Z,12.07
2018-05-24T19:41:55.453Z,10.90
2018-05-24T19:44:23.928Z,11.47
2018-05-24T19:46:53.088Z,11.43
2018-05-24T19:49:21.540Z,10.37
2018-05-24T19:51:50.003Z,11.40
2018-05-24T19:54:18.453Z,10.70
2018-05-24T19:56:46.907Z,10.83
2018-05-24T19:59:15.355Z,11.67
2018-05-24T20:01:43.816Z,11.80
2018-05-24T20:04:11.940Z,12.03
2018-05-24T20:06:40.402Z,11.47
2018-05-24T20:09:08.866Z,11.07
2018-05-24T20:11:37.331Z,12.83
2018-05-24T20:14:05.447Z,12.90
2018-05-24T20:16:34.663Z,12.23
2018-05-24T20:19:03.128Z,11.87
2018-05-24T20:21:31.596Z,12.10
2018-05-24T20:24:00.052Z,12.40
2018-05-24T20:26:28.205Z,12.10
2018-05-24T20:28:56.821Z,12.03
2018-05-24T20:31:25.318Z,13.33
2018-05-24T20:33:54.632Z,12.63
2018-05-24T20:36:23.253Z,12.93
2018-05-24T20:38:51.712Z,12.60
2018-05-24T20:41:20.168Z,13.47
2018-05-24T20:43:48.611Z,12.20
2018-05-24T20:46:17.070Z,12.90
2018-05-24T20:48:45.290Z,14.13
2018-05-24T20:51:13.748Z,13.27
2018-05-24T20:53:42.224Z,14.07
2018-05-24T20:56:10.682Z,13.93
2018-05-24T20:58:39.924Z,14.33
2018-05-24T21:01:08.385Z,12.93
2018-05-24T21:03:36.834Z,14.93
2018-05-24T21:06:05.299Z,15.70
2018-05-24T21:08:33.755Z,15.07
2018-05-24T21:11:02.205Z,16.03
2018-05-24T21:13:30.668Z,16.67
2018-05-24T21:15:59.127Z,18.03
2018-05-24T21:18:27.582Z,18.50
2018-05-24T21:20:56.052Z,19.67
2018-05-24T21:23:24.509Z,22.47
2018-05-24T21:25:53.761Z,22.67
2018-05-24T21:28:22.212Z,22.87
2018-05-24T21:30:50.655Z,25.20
2018-05-24T21:33:19.119Z,25.67
2018-05-24T21:35:47.572Z,24.80
2018-05-24T21:38:16.020Z,24.33
2018-05-24T21:40:44.487Z,25.40
2018-05-24T21:43:12.944Z,25.80
2018-05-24T21:45:41.412Z,25.80
2018-05-24T21:48:09.869Z,25.93
2018-05-24T21:50:38.330Z,26.17
2018-05-24T21:53:06.791Z,25.17
2018-05-24T21:55:36.016Z,24.80
2018-05-24T21:58:04.459Z,24.70
2018-05-24T22:00:32.611Z,25.27
2018-05-24T22:03:01.060Z,23.47
2018-05-24T22:05:29.528Z,23.43
2018-05-24T22:07:57.991Z,23.67
2018-05-24T22:10:26.452Z,24.47
2018-05-24T22:12:54.899Z,24.27
2018-05-24T22:15:23.362Z,24.63
2018-05-24T22:17:51.821Z,24.43
2018-05-24T22:20:20.276Z,24.47
2018-05-24T22:22:48.719Z,23.63
2018-05-24T22:25:17.171Z,22.60
2018-05-24T22:27:46.387Z,23.43
2018-05-24T22:30:14.853Z,22.87
2018-05-24T22:32:43.424Z,23.00
2018-05-24T22:35:12.639Z,22.00
2018-05-24T22:37:41.851Z,22.83
2018-05-24T22:40:11.280Z,22.63
2018-05-24T22:42:39.861Z,21.60
2018-05-24T22:45:08.336Z,22.30
2018-05-24T22:47:37.186Z,20.43
2018-05-24T22:50:06.092Z,20.10
2018-05-24T22:52:34.557Z,21.23
2018-05-24T22:55:03.032Z,20.30
2018-05-24T22:57:31.488Z,21.10
2018-05-24T22:59:59.951Z,22.13
2018-05-24T23:02:28.407Z,22.03
2018-05-24T23:04:56.934Z,21.30
2018-05-24T23:07:25.533Z,21.37
2018-05-24T23:09:53.677Z,20.53
2018-05-24T23:12:22.123Z,20.10
2018-05-24T23:14:50.600Z,20.40
2018-05-24T23:17:19.053Z,17.57
2018-05-24T23:19:47.527Z,17.30
2018-05-24T23:22:27.076Z,18.10
2018-05-24T23:24:55.760Z,17.00
2018-05-24T23:27:24.216Z,18.33
2018-05-24T23:29:52.984Z,16.57
2018-05-24T23:32:21.437Z,15.90
2018-05-24T23:34:50.652Z,15.53
2018-05-24T23:37:19.124Z,16.20
2018-05-24T23:39:47.585Z,17.60
2018-05-24T23:42:16.026Z,17.67
2018-05-24T23:44:44.476Z,16.53
2018-05-24T23:47:13.140Z,17.27
2018-05-24T23:49:41.592Z,17.13
2018-05-24T23:52:10.076Z,16.20
2018-05-24T23:54:38.527Z,17.80
2018-05-24T23:57:06.989Z,16.73
2018-05-24T23:59:35.483Z,16.17
